Terminal Aerodrome Forecast
Issued by NWS

Home | Current Version | Previous Version | Text Only | Print | Product List | Glossary On
Versions: 1 2 3 4 5 6 7 8 9 10 11 12 13 14 15
000
FTUS46 KSEW 271200 AAB
TAFOLM
TAF AMD
KOLM 271233Z 2713/2812 00000KT 1SM BR OVC003
      TEMPO 2713/2716 1/4SM FG VV001
     FM271800 VRB03KT 6SM BR BKN007 BKN050
     FM272000 VRB03KT P6SM FEW010 SCT050
     FM272100 33005KT P6SM SCT100=

USA.gov is the U.S. government's official web portal to all federal, state and local government web resources and services.